Latest Coastal Weather Observations for Cape Wessel

IDD60701

Issued at 7:11 am CST Sunday 22 January 2017 (issued every 10 minutes, with the page automatically refreshed every 10 minutes)

About coastal observations | Map of coastal stations | Coastal observations for NT | Marine services | Other Formats
Station Details ID: 200786 Name: CAPE WESSEL Lat: -11.00 Lon: 136.76 Height: 18.0 m
Data from the previous 72 hours. | See also: Recent months at Cape Wessel
Date/Time
CST
Temp
°C
Wind Pressure Rain since
9am
mm
Weather Cloud Vis
km
Sea
Height
m
Swell
Dir  Spd
kts
Gust
kts
hPa Trend Height
m
Period
s
Dir
22/07:00am 25.5 N 11 15 1009.8 - 17.8 - - - - - - -
22/06:30am 25.8 N 12 15 1009.4 - 17.2 - - - - - - -
22/06:00am 25.9 N 7 9 1009.0 - 16.2 Recent precip. - - - - - -
22/05:30am 25.9 NNW 7 10 1008.8 - 14.2 - - - - - - -
22/05:00am 25.9 N 5 6 1008.1 - 13.4 - - - - - - -
22/04:30am 25.6 WNW 5 8 1007.8 - 13.4 - - - - - - -
22/04:00am 25.5 WNW 9 11 1007.6 - 13.4 - - - - - - -
22/03:30am 24.9 WNW 9 12 1008.0 - 13.4 - - - - - - -
22/03:00am 24.4 WSW 10 15 1008.1 - 13.2 Rain - - - - - -
22/02:30am 26.8 W 17 33 1008.6 - 0.2 - - - - - - -
22/02:29am 27.1 W 16 33 1008.6 - 0.2 - - - - - - -
22/02:28am 27.6 W 15 33 1008.6 - 0.2 - - - - - - -
22/02:00am 28.4 WNW 12 15 1009.0 - 0.2 - - - - - - -
22/01:30am 28.4 WNW 13 17 1009.0 - 0.2 - - - - - - -
22/01:00am 28.4 WNW 13 15 1009.5 - 0.2 - - - - - - -
22/12:30am 28.4 WNW 12 16 1009.7 - 0.2 - - - - - - -
22/12:00am 28.3 NW 15 19 1010.0 - 0.2 - - - - - - -
 
Date/Time
CST
Temp
°C
Wind Pressure Rain since
9am
mm
Weather Cloud Vis
km
Sea
Height
m
Swell
Dir  Spd
kts
Gust
kts
hPa Trend Height
m
Period
s
Dir
21/11:30pm 28.4 WNW 14 17 1009.9 - 0.2 - - - - - - -
21/11:00pm 28.3 WNW 13 16 1009.8 - 0.2 - - - - - - -
21/10:30pm 28.3 NW 13 16 1010.1 - 0.2 - - - - - - -
21/10:00pm 28.2 NW 13 16 1010.0 - 0.2 - - - - - - -
21/09:30pm 27.9 NW 12 15 1009.9 - 0.2 - - - - - - -
21/09:00pm 27.6 NW 10 13 1009.5 - 0.2 - - - - - - -
21/08:30pm 27.5 NW 14 17 1009.1 - 0.2 - - - - - - -
21/08:00pm 28.4 NW 11 13 1009.1 - 0.2 - - - - - - -
21/07:30pm 28.3 NW 11 14 1009.1 - 0.2 - - - - - - -
21/07:00pm 28.3 NW 11 14 1008.9 - 0.2 - - - - - - -
21/06:30pm 28.6 NNW 9 12 1008.4 - 0.2 - - - - - - -
21/06:00pm 29.5 NW 9 12 1007.6 - 0.2 - - - - - - -
21/05:30pm 29.9 NNW 11 13 1007.0 - 0.2 - - - - - - -
21/05:00pm 30.4 NW 10 13 1007.4 - 0.2 - - - - - - -
21/04:30pm 30.7 NW 12 15 1007.5 - 0.2 - - - - - - -
21/04:00pm 31.2 NW 12 15 1007.4 - 0.2 - - - - - - -
21/03:30pm 31.5 NW 11 14 1007.5 - 0.2 - - - - - - -
21/03:00pm 31.6 WNW 10 14 1007.9 - 0.2 Recent precip. - - - - - -
21/02:30pm 31.6 WNW 11 14 1008.4 - 0.2 - - - - - - -
21/02:00pm 30.5 WNW 9 11 1008.6 - 0.0 - - - - - - -
21/01:30pm 29.0 WNW 8 10 1008.9 - 0.0 - - - - - - -
21/01:00pm 28.6 NW 7 9 1009.2 - 0.0 - - - - - - -
21/12:30pm 28.2 NW 8 10 1009.6 - 0.0 - - - - - - -
21/12:00pm 27.8 WNW 8 9 1010.0 - 0.0 - - - - - - -
21/11:30am 27.8 WNW 6 7 1010.2 - 0.0 - - - - - - -
21/11:00am 28.0 CALM 0 0 1010.2 - 0.0 - - - - - - -
21/10:30am 27.7 CALM 0 0 1010.3 - 0.0 - - - - - - -
21/10:00am 27.5 NNE 1 5 1010.5 - 0.0 - - - - - - -
21/09:30am 27.1 WSW 6 7 1010.3 - 0.0 - - - - - - -
21/09:00am 27.4 E 5 6 1010.4 - 22.2 - - - - - - -
21/08:30am 26.9 S 5 6 1010.5 - 22.2 - - - - - - -
21/08:00am 26.5 WSW 5 6 1010.6 - 22.2 - - - - - - -
21/07:30am 26.5 WSW 7 8 1010.7 - 22.0 - - - - - - -
21/07:00am 26.9 W 11 13 1010.6 - 21.8 - - - - - - -
21/06:30am 27.0 WNW 12 15 1010.4 - 21.8 - - - - - - -
21/06:00am 26.7 W 13 15 1010.2 - 21.8 - - - - - - -
21/05:30am 26.2 W 11 13 1009.9 - 21.8 - - - - - - -
21/05:00am 26.2 WNW 8 10 1009.5 - 21.8 - - - - - - -
21/04:30am 25.8 WSW 6 7 1009.3 - 21.8 - - - - - - -
21/04:00am 25.7 SW 5 6 1009.3 - 21.6 - - - - - - -
21/03:30am 25.5 WSW 9 11 1009.2 - 21.4 - - - - - - -
21/03:00am 25.4 SW 9 13 1009.1 - 20.8 Rain - - - - - -
21/02:30am 26.0 W 13 16 1008.8 - 19.6 - - - - - - -
21/02:00am 25.9 W 12 15 1009.1 - 17.4 - - - - - - -
21/01:30am 25.7 W 12 15 1009.6 - 16.4 - - - - - - -
21/01:00am 25.6 W 12 14 1009.7 - 15.2 - - - - - - -
21/12:30am 25.3 W 17 21 1009.7 - 14.6 - - - - - - -
21/12:13am 24.1 WNW 23 31 1010.2 - 13.6 - - - - - - -
21/12:00am 24.8 W 29 36 1010.2 - 12.0 Rain - - - - - -
 
Date/Time
CST
Temp
°C
Wind Pressure Rain since
9am
mm
Weather Cloud Vis
km
Sea
Height
m
Swell
Dir  Spd
kts
Gust
kts
hPa Trend Height
m
Period
s
Dir
20/11:55pm 25.2 W 23 36 1010.2 - 11.8 - - - - - - -
20/11:51pm 26.0 W 18 29 1010.4 - 11.2 - - - - - - -
20/11:30pm 25.9 W 20 25 1010.1 - 10.4 - - - - - - -
20/11:07pm 25.9 SW 9 22 1010.3 - 9.8 - - - - - - -
20/11:00pm 25.0 SW 7 10 1010.0 - 9.8 - - - - - - -
20/10:30pm 25.2 W 16 21 1010.3 - 9.6 - - - - - - -
20/10:04pm 26.0 WSW 11 24 1010.0 - 9.4 - - - - - - -
20/10:00pm 25.7 WSW 9 12 1009.9 - 9.4 - - - - - - -
20/09:30pm 26.6 W 21 26 1010.0 - 8.6 - - - - - - -
20/09:22pm 27.5 WNW 15 26 1009.8 - 8.6 - - - - - - -
20/09:00pm 28.2 NW 13 16 1009.4 - 8.6 - - - - - - -
20/08:30pm 28.0 WNW 13 17 1008.9 - 8.6 - - - - - - -
20/08:00pm 27.9 WNW 12 15 1008.3 - 8.6 - - - - - - -
20/07:30pm 27.9 WNW 13 17 1008.0 - 8.6 - - - - - - -
20/07:00pm 27.9 WNW 14 16 1007.6 - 8.6 - - - - - - -
20/06:30pm 28.4 WNW 15 19 1006.9 - 8.6 - - - - - - -
20/06:00pm 29.0 NW 14 16 1006.6 - 8.6 - - - - - - -
20/05:30pm 29.4 NW 13 17 1006.4 - 8.6 - - - - - - -
20/05:00pm 28.7 NW 10 15 1006.2 - 8.6 - - - - - - -
20/04:30pm 28.4 NW 10 12 1006.1 - 8.6 - - - - - - -
20/04:00pm 27.8 NW 9 12 1006.4 - 8.6 - - - - - - -
20/03:30pm 26.8 WNW 8 11 1006.8 - 8.6 - - - - - - -
20/03:00pm 26.2 WNW 8 10 1007.1 - 8.6 Recent precip. - - - - - -
20/02:30pm 25.6 WSW 7 9 1007.6 - 8.6 - - - - - - -
20/02:00pm 26.6 W 19 26 1007.5 - 4.6 - - - - - - -
20/01:58pm 26.8 W 17 25 1007.5 - 4.6 - - - - - - -
20/01:30pm 27.6 NW 12 16 1007.7 - 4.6 - - - - - - -
20/01:00pm 27.5 WSW 11 16 1008.1 - 4.4 - - - - - - -
20/12:30pm 29.6 NNW 11 14 1008.0 - 0.0 - - - - - - -
20/12:00pm 30.0 NNW 12 15 1008.3 - 0.0 - - - - - - -
20/11:30am 30.9 NNW 10 13 1008.8 - 0.0 - - - - - - -
20/11:00am 30.2 NNW 10 13 1009.1 - 0.0 - - - - - - -
20/10:30am 30.3 NNW 10 12 1009.4 - 0.0 - - - - - - -
20/10:00am 30.3 NNW 12 14 1009.4 - 0.0 - - - - - - -
20/09:30am 31.0 NNW 11 13 1009.3 - 0.0 - - - - - - -
20/09:00am 29.8 NNW 12 15 1009.3 - 7.4 - - - - - - -
20/08:30am 29.0 NNW 14 17 1009.2 - 7.4 - - - - - - -
20/08:00am 29.3 NW 12 17 1008.8 - 7.4 - - - - - - -
20/07:30am 29.2 NW 11 14 1008.2 - 7.4 - - - - - - -
20/07:00am 27.6 W 12 15 1008.4 - 7.4 - - - - - - -
20/06:30am 28.1 WNW 13 16 1008.3 - 7.4 - - - - - - -
20/06:00am 28.0 NW 13 16 1008.1 - 7.4 - - - - - - -
20/05:30am 27.8 WNW 11 14 1007.6 - 7.4 - - - - - - -
20/05:00am 27.9 WNW 13 17 1007.6 - 7.4 - - - - - - -
20/04:30am 27.9 WNW 13 15 1007.6 - 7.4 - - - - - - -
20/04:00am 28.0 WNW 13 16 1007.6 - 7.4 - - - - - - -
20/03:30am 28.0 WNW 13 16 1007.5 - 7.4 - - - - - - -
20/03:00am 27.8 WNW 12 15 1007.7 - 7.4 - - - - - - -
20/02:30am 27.8 WNW 13 17 1007.9 - 7.4 - - - - - - -
20/02:00am 27.7 WNW 13 16 1008.0 - 7.4 - - - - - - -
20/01:30am 27.5 WNW 12 14 1008.0 - 7.4 - - - - - - -
20/01:00am 27.1 NW 9 11 1008.2 - 7.4 - - - - - - -
20/12:30am 27.2 NW 9 14 1008.4 - 7.4 - - - - - - -
20/12:00am 26.9 NW 8 10 1009.0 - 7.4 - - - - - - -
 
Date/Time
CST
Temp
°C
Wind Pressure Rain since
9am
mm
Weather Cloud Vis
km
Sea
Height
m
Swell
Dir  Spd
kts
Gust
kts
hPa Trend Height
m
Period
s
Dir
19/11:30pm 27.0 NW 7 8 1009.5 - 7.4 - - - - - - -
19/11:00pm 26.9 NW 7 9 1009.7 - 7.4 - - - - - - -
19/10:30pm 26.9 NNW 7 8 1009.5 - 7.4 - - - - - - -
19/10:00pm 26.8 NNW 6 7 1009.7 - 7.4 - - - - - - -
19/09:30pm 26.8 N 3 5 1009.5 - 7.4 - - - - - - -
19/09:00pm 26.7 N 5 7 1009.2 - 7.4 - - - - - - -
19/08:30pm 26.6 NNW 6 8 1009.0 - 7.4 - - - - - - -
19/08:00pm 26.6 NNW 6 9 1009.2 - 7.4 - - - - - - -
19/07:30pm 26.3 NW 7 8 1009.2 - 7.4 - - - - - - -
19/07:00pm 26.5 NNW 7 9 1008.8 - 7.4 - - - - - - -
19/06:30pm 26.3 NNW 5 7 1008.7 - 7.2 - - - - - - -
19/06:00pm 26.7 NW 7 9 1008.4 - 7.2 Recent precip. - - - - - -
19/05:30pm 26.6 NNW 6 8 1008.2 - 7.2 - - - - - - -
19/05:00pm 26.9 NNW 9 11 1008.1 - 7.0 - - - - - - -
19/04:30pm 26.6 WNW 11 15 1008.1 - 7.0 - - - - - - -
19/04:00pm 26.6 W 12 15 1008.0 - 6.6 - - - - - - -
19/03:30pm 28.7 WNW 17 23 1008.0 - 0.0 - - - - - - -
19/03:00pm 31.9 NNW 11 15 1008.4 - 0.0 - - - - - - -
19/02:30pm 33.1 NW 11 14 1008.5 - 0.0 - - - - - - -
19/02:00pm 32.8 NW 11 14 1008.8 - 0.0 - - - - - - -
19/01:30pm 32.7 NNW 10 12 1009.4 - 0.0 - - - - - - -
19/01:00pm 32.2 NNW 10 12 1009.6 - 0.0 - - - - - - -
19/12:30pm 32.1 NNW 10 12 1009.9 - 0.0 - - - - - - -
19/12:00pm 32.4 NW 10 13 1010.3 - 0.0 - - - - - - -
19/11:30am 31.0 NW 9 12 1010.5 - 0.0 - - - - - - -
19/11:00am 32.5 NW 7 9 1010.6 - 0.0 - - - - - - -
19/10:30am 31.9 NW 8 9 1010.9 - 0.0 - - - - - - -
19/10:00am 31.4 NW 5 7 1011.1 - 0.0 - - - - - - -
19/09:30am 30.4 N 5 6 1011.4 - 0.0 - - - - - - -
19/09:00am 30.5 ENE 4 6 1011.4 - 0.8 - - - - - - -
19/08:30am 28.6 ESE 4 6 1011.3 - 0.8 - - - - - - -
19/08:00am 27.8 ESE 6 9 1011.4 - 0.8 - - - - - - -
19/07:30am 27.7 CALM 0 0 1011.3 - 0.8 - - - - - - -

Other Formats:

Comma delimited format used in spreadsheet applications
http://www.bom.gov.au/fwo/IDD60701/IDD60701.94147.axf

JavaScript Object Notation format (JSON) in row-major order
http://www.bom.gov.au/fwo/IDD60701/IDD60701.94147.json